sensor_id;sensor_type;location;lat;lon;timestamp;temperature;humidity
23629;DHT22;11991;57.150;-2.134;2023-02-01T00:00:39;5.40;99.90
23629;DHT22;11991;57.150;-2.134;2023-02-01T00:03:07;5.40;99.90
23629;DHT22;11991;57.150;-2.134;2023-02-01T00:05:35;5.40;99.90
23629;DHT22;11991;57.150;-2.134;2023-02-01T00:08:02;5.40;99.90
23629;DHT22;11991;57.150;-2.134;2023-02-01T00:10:30;5.40;99.90
23629;DHT22;11991;57.150;-2.134;2023-02-01T00:12:57;5.40;99.90
23629;DHT22;11991;57.150;-2.134;2023-02-01T00:15:24;5.40;99.90
23629;DHT22;11991;57.150;-2.134;2023-02-01T00:17:55;5.50;99.90
23629;DHT22;11991;57.150;-2.134;2023-02-01T00:20:22;5.50;99.90
23629;DHT22;11991;57.150;-2.134;2023-02-01T00:22:49;5.60;99.90
23629;DHT22;11991;57.150;-2.134;2023-02-01T00:25:17;5.70;99.90
23629;DHT22;11991;57.150;-2.134;2023-02-01T00:27:48;5.60;99.90
23629;DHT22;11991;57.150;-2.134;2023-02-01T00:30:17;5.60;99.90
23629;DHT22;11991;57.150;-2.134;2023-02-01T00:32:46;5.50;99.90
23629;DHT22;11991;57.150;-2.134;2023-02-01T00:35:13;5.50;99.90
23629;DHT22;11991;57.150;-2.134;2023-02-01T00:37:40;5.40;99.90
23629;DHT22;11991;57.150;-2.134;2023-02-01T00:40:08;5.30;99.90
23629;DHT22;11991;57.150;-2.134;2023-02-01T00:42:36;5.30;99.90
23629;DHT22;11991;57.150;-2.134;2023-02-01T00:45:03;5.30;99.90
23629;DHT22;11991;57.150;-2.134;2023-02-01T00:47:31;5.20;99.90
23629;DHT22;11991;57.150;-2.134;2023-02-01T00:49:58;5.20;99.90
23629;DHT22;11991;57.150;-2.134;2023-02-01T00:52:26;5.20;99.90
23629;DHT22;11991;57.150;-2.134;2023-02-01T00:54:54;5.20;99.90
23629;DHT22;11991;57.150;-2.134;2023-02-01T00:57:21;5.20;99.90
23629;DHT22;11991;57.150;-2.134;2023-02-01T00:59:48;5.30;99.90
23629;DHT22;11991;57.150;-2.134;2023-02-01T01:02:16;5.30;99.90
23629;DHT22;11991;57.150;-2.134;2023-02-01T01:04:43;5.40;99.90
23629;DHT22;11991;57.150;-2.134;2023-02-01T01:07:10;5.30;99.90
23629;DHT22;11991;57.150;-2.134;2023-02-01T01:09:38;5.30;99.90
23629;DHT22;11991;57.150;-2.134;2023-02-01T01:12:05;5.20;99.90
23629;DHT22;11991;57.150;-2.134;2023-02-01T01:14:32;5.20;99.90
23629;DHT22;11991;57.150;-2.134;2023-02-01T01:16:59;5.20;99.90
23629;DHT22;11991;57.150;-2.134;2023-02-01T01:19:27;5.20;99.90
23629;DHT22;11991;57.150;-2.134;2023-02-01T01:21:54;5.20;99.90
23629;DHT22;11991;57.150;-2.134;2023-02-01T01:24:22;5.10;99.90
23629;DHT22;11991;57.150;-2.134;2023-02-01T01:26:49;4.90;99.90
23629;DHT22;11991;57.150;-2.134;2023-02-01T01:29:16;4.70;99.90
23629;DHT22;11991;57.150;-2.134;2023-02-01T01:31:43;4.60;99.90
23629;DHT22;11991;57.150;-2.134;2023-02-01T01:34:10;4.60;99.90
23629;DHT22;11991;57.150;-2.134;2023-02-01T01:36:38;4.60;99.90
23629;DHT22;11991;57.150;-2.134;2023-02-01T01:39:05;4.60;99.90
23629;DHT22;11991;57.150;-2.134;2023-02-01T01:41:32;4.60;99.90
23629;DHT22;11991;57.150;-2.134;2023-02-01T01:47:18;4.60;99.90
23629;DHT22;11991;57.150;-2.134;2023-02-01T01:49:46;4.70;99.90
23629;DHT22;11991;57.150;-2.134;2023-02-01T01:52:14;4.80;99.90
23629;DHT22;11991;57.150;-2.134;2023-02-01T01:54:55;4.90;99.90
23629;DHT22;11991;57.150;-2.134;2023-02-01T01:57:29;4.80;99.90
23629;DHT22;11991;57.150;-2.134;2023-02-01T02:00:11;4.80;99.90
23629;DHT22;11991;57.150;-2.134;2023-02-01T02:02:41;4.80;99.90
23629;DHT22;11991;57.150;-2.134;2023-02-01T02:05:10;4.70;99.90
23629;DHT22;11991;57.150;-2.134;2023-02-01T02:07:42;4.70;99.90
23629;DHT22;11991;57.150;-2.134;2023-02-01T02:10:12;4.70;99.90
23629;DHT22;11991;57.150;-2.134;2023-02-01T02:12:42;4.70;99.90
23629;DHT22;11991;57.150;-2.134;2023-02-01T02:15:12;4.80;99.90
23629;DHT22;11991;57.150;-2.134;2023-02-01T02:17:57;4.80;99.90
23629;DHT22;11991;57.150;-2.134;2023-02-01T02:20:39;4.70;99.90
23629;DHT22;11991;57.150;-2.134;2023-02-01T02:36:48;3.90;99.90
23629;DHT22;11991;57.150;-2.134;2023-02-01T02:46:35;3.80;99.90
23629;DHT22;11991;57.150;-2.134;2023-02-01T02:49:19;3.80;99.90
23629;DHT22;11991;57.150;-2.134;2023-02-01T02:51:54;3.80;99.90
23629;DHT22;11991;57.150;-2.134;2023-02-01T02:54:45;3.80;99.90
23629;DHT22;11991;57.150;-2.134;2023-02-01T03:00:20;3.80;99.90
23629;DHT22;11991;57.150;-2.134;2023-02-01T03:03:07;3.80;99.90
23629;DHT22;11991;57.150;-2.134;2023-02-01T03:05:53;3.80;99.90
23629;DHT22;11991;57.150;-2.134;2023-02-01T03:08:22;3.90;99.90
23629;DHT22;11991;57.150;-2.134;2023-02-01T03:11:04;3.90;99.90
23629;DHT22;11991;57.150;-2.134;2023-02-01T03:13:56;4.00;99.90
23629;DHT22;11991;57.150;-2.134;2023-02-01T03:16:51;4.00;99.90
23629;DHT22;11991;57.150;-2.134;2023-02-01T03:19:25;4.00;99.90
23629;DHT22;11991;57.150;-2.134;2023-02-01T03:21:57;4.10;99.90
23629;DHT22;11991;57.150;-2.134;2023-02-01T03:24:45;4.10;99.90
23629;DHT22;11991;57.150;-2.134;2023-02-01T03:32:42;4.30;99.90
23629;DHT22;11991;57.150;-2.134;2023-02-01T03:44:32;4.10;99.90
23629;DHT22;11991;57.150;-2.134;2023-02-01T03:47:10;4.10;99.90
23629;DHT22;11991;57.150;-2.134;2023-02-01T03:49:50;4.00;99.90
23629;DHT22;11991;57.150;-2.134;2023-02-01T03:52:27;4.00;99.90
23629;DHT22;11991;57.150;-2.134;2023-02-01T03:54:57;4.00;99.90
23629;DHT22;11991;57.150;-2.134;2023-02-01T03:57:29;3.90;99.90
23629;DHT22;11991;57.150;-2.134;2023-02-01T04:02:46;3.90;99.90
23629;DHT22;11991;57.150;-2.134;2023-02-01T04:05:13;3.90;99.90
23629;DHT22;11991;57.150;-2.134;2023-02-01T04:07:48;3.90;99.90
23629;DHT22;11991;57.150;-2.134;2023-02-01T04:10:16;3.80;99.90
23629;DHT22;11991;57.150;-2.134;2023-02-01T04:12:46;3.90;99.90
23629;DHT22;11991;57.150;-2.134;2023-02-01T04:15:13;3.90;99.90
23629;DHT22;11991;57.150;-2.134;2023-02-01T04:17:40;3.80;99.90
23629;DHT22;11991;57.150;-2.134;2023-02-01T04:20:08;3.80;99.90
23629;DHT22;11991;57.150;-2.134;2023-02-01T04:22:35;3.80;99.90
23629;DHT22;11991;57.150;-2.134;2023-02-01T04:25:03;3.90;99.90
23629;DHT22;11991;57.150;-2.134;2023-02-01T04:27:32;3.90;99.90
23629;DHT22;11991;57.150;-2.134;2023-02-01T04:30:00;3.90;99.90
23629;DHT22;11991;57.150;-2.134;2023-02-01T04:32:27;3.90;99.90
23629;DHT22;11991;57.150;-2.134;2023-02-01T04:34:54;3.90;99.90
23629;DHT22;11991;57.150;-2.134;2023-02-01T04:37:21;3.90;99.90
23629;DHT22;11991;57.150;-2.134;2023-02-01T04:39:49;3.80;99.90
23629;DHT22;11991;57.150;-2.134;2023-02-01T04:42:16;3.90;99.90
23629;DHT22;11991;57.150;-2.134;2023-02-01T04:44:43;3.90;99.90
23629;DHT22;11991;57.150;-2.134;2023-02-01T04:47:11;3.90;99.90
23629;DHT22;11991;57.150;-2.134;2023-02-01T04:49:38;3.90;99.90
23629;DHT22;11991;57.150;-2.134;2023-02-01T04:52:05;3.80;99.90
23629;DHT22;11991;57.150;-2.134;2023-02-01T04:54:32;3.80;99.90
23629;DHT22;11991;57.150;-2.134;2023-02-01T04:56:59;3.80;99.90
23629;DHT22;11991;57.150;-2.134;2023-02-01T04:59:27;3.80;99.90
23629;DHT22;11991;57.150;-2.134;2023-02-01T05:01:55;3.80;99.90
23629;DHT22;11991;57.150;-2.134;2023-02-01T05:04:24;3.80;99.90
23629;DHT22;11991;57.150;-2.134;2023-02-01T05:06:51;3.80;99.90
23629;DHT22;11991;57.150;-2.134;2023-02-01T05:09:18;3.80;99.90
23629;DHT22;11991;57.150;-2.134;2023-02-01T05:11:48;3.80;99.90
23629;DHT22;11991;57.150;-2.134;2023-02-01T05:14:33;3.80;99.90
23629;DHT22;11991;57.150;-2.134;2023-02-01T05:17:00;3.80;99.90
23629;DHT22;11991;57.150;-2.134;2023-02-01T05:19:28;3.90;99.90
23629;DHT22;11991;57.150;-2.134;2023-02-01T05:21:55;3.90;99.90
23629;DHT22;11991;57.150;-2.134;2023-02-01T05:24:22;3.90;99.90
23629;DHT22;11991;57.150;-2.134;2023-02-01T05:26:50;3.90;99.90
23629;DHT22;11991;57.150;-2.134;2023-02-01T05:29:18;3.90;99.90
23629;DHT22;11991;57.150;-2.134;2023-02-01T05:31:46;4.00;99.90
23629;DHT22;11991;57.150;-2.134;2023-02-01T05:34:15;4.00;99.90
23629;DHT22;11991;57.150;-2.134;2023-02-01T05:36:42;4.00;99.90
23629;DHT22;11991;57.150;-2.134;2023-02-01T05:39:10;4.00;99.90
23629;DHT22;11991;57.150;-2.134;2023-02-01T05:41:37;4.00;99.90
23629;DHT22;11991;57.150;-2.134;2023-02-01T05:44:04;4.10;99.90
23629;DHT22;11991;57.150;-2.134;2023-02-01T05:46:35;4.20;99.90
23629;DHT22;11991;57.150;-2.134;2023-02-01T05:49:03;4.20;99.90
23629;DHT22;11991;57.150;-2.134;2023-02-01T05:51:31;4.30;99.90
23629;DHT22;11991;57.150;-2.134;2023-02-01T05:53:58;4.30;99.90
23629;DHT22;11991;57.150;-2.134;2023-02-01T05:56:25;4.30;99.90
23629;DHT22;11991;57.150;-2.134;2023-02-01T05:58:52;4.30;99.90
23629;DHT22;11991;57.150;-2.134;2023-02-01T06:01:20;4.30;99.90
23629;DHT22;11991;57.150;-2.134;2023-02-01T06:03:47;4.30;99.90
23629;DHT22;11991;57.150;-2.134;2023-02-01T06:06:14;4.40;99.90
23629;DHT22;11991;57.150;-2.134;2023-02-01T06:08:41;4.40;99.90
23629;DHT22;11991;57.150;-2.134;2023-02-01T06:11:09;4.40;99.90
23629;DHT22;11991;57.150;-2.134;2023-02-01T06:13:41;4.40;99.90
23629;DHT22;11991;57.150;-2.134;2023-02-01T06:16:08;4.40;99.90
23629;DHT22;11991;57.150;-2.134;2023-02-01T06:18:35;4.40;99.90
23629;DHT22;11991;57.150;-2.134;2023-02-01T06:21:03;4.40;99.90
23629;DHT22;11991;57.150;-2.134;2023-02-01T06:23:31;4.50;99.90
23629;DHT22;11991;57.150;-2.134;2023-02-01T06:26:03;4.50;99.90
23629;DHT22;11991;57.150;-2.134;2023-02-01T06:28:32;4.50;99.90
23629;DHT22;11991;57.150;-2.134;2023-02-01T06:31:06;4.60;99.90
23629;DHT22;11991;57.150;-2.134;2023-02-01T06:33:35;4.60;99.90
23629;DHT22;11991;57.150;-2.134;2023-02-01T06:36:07;4.60;99.90
23629;DHT22;11991;57.150;-2.134;2023-02-01T06:38:35;4.70;99.90
23629;DHT22;11991;57.150;-2.134;2023-02-01T06:41:03;4.70;99.90
23629;DHT22;11991;57.150;-2.134;2023-02-01T06:43:31;4.70;99.90
23629;DHT22;11991;57.150;-2.134;2023-02-01T06:46:05;4.70;99.90
23629;DHT22;11991;57.150;-2.134;2023-02-01T06:48:33;4.80;99.90
23629;DHT22;11991;57.150;-2.134;2023-02-01T06:51:01;4.80;99.90
23629;DHT22;11991;57.150;-2.134;2023-02-01T06:53:28;4.80;99.90
23629;DHT22;11991;57.150;-2.134;2023-02-01T06:56:00;4.80;99.90
23629;DHT22;11991;57.150;-2.134;2023-02-01T06:58:31;4.80;99.90
23629;DHT22;11991;57.150;-2.134;2023-02-01T07:01:05;4.90;99.90
23629;DHT22;11991;57.150;-2.134;2023-02-01T07:03:32;5.00;99.90
23629;DHT22;11991;57.150;-2.134;2023-02-01T07:06:00;5.00;99.90
23629;DHT22;11991;57.150;-2.134;2023-02-01T07:08:28;5.10;99.90
23629;DHT22;11991;57.150;-2.134;2023-02-01T07:10:56;5.10;99.90
23629;DHT22;11991;57.150;-2.134;2023-02-01T07:13:23;5.10;99.90
23629;DHT22;11991;57.150;-2.134;2023-02-01T07:15:50;5.10;99.90
23629;DHT22;11991;57.150;-2.134;2023-02-01T07:18:18;5.00;99.90
23629;DHT22;11991;57.150;-2.134;2023-02-01T07:20:50;5.00;99.90
23629;DHT22;11991;57.150;-2.134;2023-02-01T07:23:17;5.00;99.90
23629;DHT22;11991;57.150;-2.134;2023-02-01T07:25:44;5.00;99.90
23629;DHT22;11991;57.150;-2.134;2023-02-01T07:28:12;5.00;99.90
23629;DHT22;11991;57.150;-2.134;2023-02-01T07:30:39;4.90;99.90
23629;DHT22;11991;57.150;-2.134;2023-02-01T07:33:07;4.90;99.90
23629;DHT22;11991;57.150;-2.134;2023-02-01T07:35:34;5.00;99.90
23629;DHT22;11991;57.150;-2.134;2023-02-01T07:38:01;5.00;99.90
23629;DHT22;11991;57.150;-2.134;2023-02-01T07:40:29;5.00;99.90
23629;DHT22;11991;57.150;-2.134;2023-02-01T07:42:57;5.00;99.90
23629;DHT22;11991;57.150;-2.134;2023-02-01T07:45:25;4.90;99.90
23629;DHT22;11991;57.150;-2.134;2023-02-01T07:47:53;4.90;99.90
23629;DHT22;11991;57.150;-2.134;2023-02-01T07:50:20;4.90;99.90
23629;DHT22;11991;57.150;-2.134;2023-02-01T07:52:48;4.90;99.90
23629;DHT22;11991;57.150;-2.134;2023-02-01T07:55:15;4.90;99.90
23629;DHT22;11991;57.150;-2.134;2023-02-01T07:57:42;4.90;99.90
23629;DHT22;11991;57.150;-2.134;2023-02-01T08:00:10;4.90;99.90
23629;DHT22;11991;57.150;-2.134;2023-02-01T08:03:00;4.90;99.90
23629;DHT22;11991;57.150;-2.134;2023-02-01T08:05:27;4.80;99.90
23629;DHT22;11991;57.150;-2.134;2023-02-01T08:07:54;4.80;99.90
23629;DHT22;11991;57.150;-2.134;2023-02-01T08:10:21;4.80;99.90
23629;DHT22;11991;57.150;-2.134;2023-02-01T08:12:49;4.80;99.90
23629;DHT22;11991;57.150;-2.134;2023-02-01T08:15:18;4.80;99.90
23629;DHT22;11991;57.150;-2.134;2023-02-01T08:17:49;4.70;99.90
23629;DHT22;11991;57.150;-2.134;2023-02-01T08:20:18;4.70;99.90
23629;DHT22;11991;57.150;-2.134;2023-02-01T08:22:46;4.60;99.90
23629;DHT22;11991;57.150;-2.134;2023-02-01T08:25:13;4.60;99.90
23629;DHT22;11991;57.150;-2.134;2023-02-01T08:27:41;4.50;99.90
23629;DHT22;11991;57.150;-2.134;2023-02-01T08:30:08;4.50;99.90
23629;DHT22;11991;57.150;-2.134;2023-02-01T08:32:36;4.50;99.90
23629;DHT22;11991;57.150;-2.134;2023-02-01T08:35:04;4.60;99.90
23629;DHT22;11991;57.150;-2.134;2023-02-01T08:37:32;4.60;99.90
23629;DHT22;11991;57.150;-2.134;2023-02-01T08:39:59;4.60;99.90
23629;DHT22;11991;57.150;-2.134;2023-02-01T08:42:26;4.60;99.90
23629;DHT22;11991;57.150;-2.134;2023-02-01T08:45:12;4.70;99.90
23629;DHT22;11991;57.150;-2.134;2023-02-01T08:47:40;4.70;99.90
23629;DHT22;11991;57.150;-2.134;2023-02-01T08:50:08;4.80;99.90
23629;DHT22;11991;57.150;-2.134;2023-02-01T08:52:36;4.80;99.90
23629;DHT22;11991;57.150;-2.134;2023-02-01T08:55:05;4.80;99.90
23629;DHT22;11991;57.150;-2.134;2023-02-01T08:57:33;4.90;99.90
23629;DHT22;11991;57.150;-2.134;2023-02-01T09:00:01;4.90;99.90
23629;DHT22;11991;57.150;-2.134;2023-02-01T09:02:28;5.00;99.90
23629;DHT22;11991;57.150;-2.134;2023-02-01T09:04:55;5.00;99.90
23629;DHT22;11991;57.150;-2.134;2023-02-01T09:07:23;5.00;99.90
23629;DHT22;11991;57.150;-2.134;2023-02-01T09:09:50;5.00;99.90
23629;DHT22;11991;57.150;-2.134;2023-02-01T09:12:18;5.10;99.90
23629;DHT22;11991;57.150;-2.134;2023-02-01T09:14:45;5.10;99.90
23629;DHT22;11991;57.150;-2.134;2023-02-01T09:17:12;5.00;99.90
23629;DHT22;11991;57.150;-2.134;2023-02-01T09:19:40;5.10;99.90
23629;DHT22;11991;57.150;-2.134;2023-02-01T09:22:08;5.00;99.90
23629;DHT22;11991;57.150;-2.134;2023-02-01T09:24:36;5.00;99.90
23629;DHT22;11991;57.150;-2.134;2023-02-01T09:27:03;5.00;99.90
23629;DHT22;11991;57.150;-2.134;2023-02-01T09:29:31;5.00;99.90
23629;DHT22;11991;57.150;-2.134;2023-02-01T09:31:58;5.00;99.90
23629;DHT22;11991;57.150;-2.134;2023-02-01T09:34:30;5.00;99.90
23629;DHT22;11991;57.150;-2.134;2023-02-01T09:36:58;5.00;99.90
23629;DHT22;11991;57.150;-2.134;2023-02-01T09:39:25;5.10;99.90
23629;DHT22;11991;57.150;-2.134;2023-02-01T09:42:07;5.10;99.90
23629;DHT22;11991;57.150;-2.134;2023-02-01T09:45:04;5.10;99.90
23629;DHT22;11991;57.150;-2.134;2023-02-01T09:47:35;5.20;99.90
23629;DHT22;11991;57.150;-2.134;2023-02-01T09:50:16;5.30;99.90
23629;DHT22;11991;57.150;-2.134;2023-02-01T09:53:02;5.30;99.90
23629;DHT22;11991;57.150;-2.134;2023-02-01T09:55:39;5.40;99.90
23629;DHT22;11991;57.150;-2.134;2023-02-01T09:58:30;5.50;99.90
23629;DHT22;11991;57.150;-2.134;2023-02-01T10:01:01;5.50;99.90
23629;DHT22;11991;57.150;-2.134;2023-02-01T10:03:33;5.50;99.90
23629;DHT22;11991;57.150;-2.134;2023-02-01T10:15:59;5.60;99.90
23629;DHT22;11991;57.150;-2.134;2023-02-01T10:18:38;5.60;99.90
23629;DHT22;11991;57.150;-2.134;2023-02-01T10:21:26;5.70;99.90
23629;DHT22;11991;57.150;-2.134;2023-02-01T10:26:48;5.70;99.90
23629;DHT22;11991;57.150;-2.134;2023-02-01T10:29:19;5.70;99.90
23629;DHT22;11991;57.150;-2.134;2023-02-01T10:31:47;5.80;99.90
23629;DHT22;11991;57.150;-2.134;2023-02-01T10:34:27;5.80;99.90
23629;DHT22;11991;57.150;-2.134;2023-02-01T10:37:10;5.80;99.90
23629;DHT22;11991;57.150;-2.134;2023-02-01T10:39:47;5.90;99.90
23629;DHT22;11991;57.150;-2.134;2023-02-01T10:42:21;5.90;99.90
23629;DHT22;11991;57.150;-2.134;2023-02-01T10:44:50;5.90;99.90
23629;DHT22;11991;57.150;-2.134;2023-02-01T10:47:18;5.90;99.90
23629;DHT22;11991;57.150;-2.134;2023-02-01T10:50:03;5.90;99.90
23629;DHT22;11991;57.150;-2.134;2023-02-01T10:52:47;5.90;99.90
23629;DHT22;11991;57.150;-2.134;2023-02-01T10:58:16;6.00;99.90
23629;DHT22;11991;57.150;-2.134;2023-02-01T11:01:06;6.00;99.90
23629;DHT22;11991;57.150;-2.134;2023-02-01T11:03:44;6.10;99.90
23629;DHT22;11991;57.150;-2.134;2023-02-01T11:14:27;6.20;99.90
23629;DHT22;11991;57.150;-2.134;2023-02-01T11:16:58;6.20;99.90
23629;DHT22;11991;57.150;-2.134;2023-02-01T11:19:27;6.20;99.90
23629;DHT22;11991;57.150;-2.134;2023-02-01T11:21:58;6.20;99.90
23629;DHT22;11991;57.150;-2.134;2023-02-01T11:24:33;6.20;99.90
23629;DHT22;11991;57.150;-2.134;2023-02-01T11:27:04;6.20;99.90
23629;DHT22;11991;57.150;-2.134;2023-02-01T11:29:54;6.20;99.90
23629;DHT22;11991;57.150;-2.134;2023-02-01T11:32:25;6.20;99.90
23629;DHT22;11991;57.150;-2.134;2023-02-01T11:34:59;6.20;99.90
23629;DHT22;11991;57.150;-2.134;2023-02-01T11:37:35;6.20;99.90
23629;DHT22;11991;57.150;-2.134;2023-02-01T11:40:27;6.20;99.90
23629;DHT22;11991;57.150;-2.134;2023-02-01T11:43:18;6.30;99.90
23629;DHT22;11991;57.150;-2.134;2023-02-01T11:46:01;6.30;99.90
23629;DHT22;11991;57.150;-2.134;2023-02-01T11:48:31;6.30;99.90
23629;DHT22;11991;57.150;-2.134;2023-02-01T11:57:02;6.40;99.90
23629;DHT22;11991;57.150;-2.134;2023-02-01T12:05:56;6.40;99.90
23629;DHT22;11991;57.150;-2.134;2023-02-01T12:26:30;6.60;99.90
23629;DHT22;11991;57.150;-2.134;2023-02-01T12:34:43;6.70;99.90
23629;DHT22;11991;57.150;-2.134;2023-02-01T12:42:35;6.80;99.90
23629;DHT22;11991;57.150;-2.134;2023-02-01T12:45:14;6.80;99.90
23629;DHT22;11991;57.150;-2.134;2023-02-01T12:47:49;6.90;99.90
23629;DHT22;11991;57.150;-2.134;2023-02-01T12:50:24;6.80;99.90
23629;DHT22;11991;57.150;-2.134;2023-02-01T12:52:57;6.90;99.90
23629;DHT22;11991;57.150;-2.134;2023-02-01T12:55:36;6.90;99.90
23629;DHT22;11991;57.150;-2.134;2023-02-01T13:01:14;6.90;99.90
23629;DHT22;11991;57.150;-2.134;2023-02-01T13:06:21;7.00;99.90
23629;DHT22;11991;57.150;-2.134;2023-02-01T13:09:18;7.00;99.90
23629;DHT22;11991;57.150;-2.134;2023-02-01T13:11:48;6.90;99.90
23629;DHT22;11991;57.150;-2.134;2023-02-01T13:14:38;7.00;99.90
23629;DHT22;11991;57.150;-2.134;2023-02-01T13:17:17;6.90;99.90
23629;DHT22;11991;57.150;-2.134;2023-02-01T13:20:03;6.90;99.90
23629;DHT22;11991;57.150;-2.134;2023-02-01T13:22:44;7.00;99.90
23629;DHT22;11991;57.150;-2.134;2023-02-01T13:28:07;6.90;99.90
23629;DHT22;11991;57.150;-2.134;2023-02-01T13:31:04;6.90;99.90
23629;DHT22;11991;57.150;-2.134;2023-02-01T13:42:13;7.00;99.90
23629;DHT22;11991;57.150;-2.134;2023-02-01T13:44:48;7.00;99.90
23629;DHT22;11991;57.150;-2.134;2023-02-01T13:47:32;7.10;99.90
23629;DHT22;11991;57.150;-2.134;2023-02-01T13:55:29;7.10;99.90
23629;DHT22;11991;57.150;-2.134;2023-02-01T14:00:31;7.10;99.90
23629;DHT22;11991;57.150;-2.134;2023-02-01T14:10:46;7.10;99.90
23629;DHT22;11991;57.150;-2.134;2023-02-01T14:13:33;7.20;99.90
23629;DHT22;11991;57.150;-2.134;2023-02-01T14:34:48;7.20;99.90
23629;DHT22;11991;57.150;-2.134;2023-02-01T14:39:56;7.20;99.90
23629;DHT22;11991;57.150;-2.134;2023-02-01T14:42:29;7.20;99.90
23629;DHT22;11991;57.150;-2.134;2023-02-01T14:56:05;7.10;99.90
23629;DHT22;11991;57.150;-2.134;2023-02-01T15:01:29;7.10;99.90
23629;DHT22;11991;57.150;-2.134;2023-02-01T15:04:15;7.10;99.90
23629;DHT22;11991;57.150;-2.134;2023-02-01T15:06:48;7.10;99.90
23629;DHT22;11991;57.150;-2.134;2023-02-01T15:09:33;7.00;99.90
23629;DHT22;11991;57.150;-2.134;2023-02-01T15:12:08;7.00;99.90
23629;DHT22;11991;57.150;-2.134;2023-02-01T15:15:18;7.00;99.90
23629;DHT22;11991;57.150;-2.134;2023-02-01T15:17:53;7.00;99.90
23629;DHT22;11991;57.150;-2.134;2023-02-01T15:20:30;7.10;99.90
23629;DHT22;11991;57.150;-2.134;2023-02-01T15:23:05;7.10;99.90
23629;DHT22;11991;57.150;-2.134;2023-02-01T15:25:35;7.00;99.90
23629;DHT22;11991;57.150;-2.134;2023-02-01T15:28:04;7.00;99.90
23629;DHT22;11991;57.150;-2.134;2023-02-01T15:30:34;7.00;99.90
23629;DHT22;11991;57.150;-2.134;2023-02-01T15:33:16;7.00;99.90
23629;DHT22;11991;57.150;-2.134;2023-02-01T15:41:04;6.90;99.90
23629;DHT22;11991;57.150;-2.134;2023-02-01T15:44:03;6.90;99.90
23629;DHT22;11991;57.150;-2.134;2023-02-01T15:47:05;6.90;99.90
23629;DHT22;11991;57.150;-2.134;2023-02-01T15:49:36;6.80;99.90
23629;DHT22;11991;57.150;-2.134;2023-02-01T15:52:24;6.80;99.90
23629;DHT22;11991;57.150;-2.134;2023-02-01T15:55:00;6.80;99.90
23629;DHT22;11991;57.150;-2.134;2023-02-01T15:57:44;6.80;99.90
23629;DHT22;11991;57.150;-2.134;2023-02-01T16:00:42;6.70;99.90
23629;DHT22;11991;57.150;-2.134;2023-02-01T16:03:41;6.70;99.90
23629;DHT22;11991;57.150;-2.134;2023-02-01T16:06:11;6.60;99.90
23629;DHT22;11991;57.150;-2.134;2023-02-01T16:09:12;6.60;99.90
23629;DHT22;11991;57.150;-2.134;2023-02-01T16:11:58;6.50;99.90
23629;DHT22;11991;57.150;-2.134;2023-02-01T16:14:26;6.50;99.90
23629;DHT22;11991;57.150;-2.134;2023-02-01T16:16:56;6.50;99.90
23629;DHT22;11991;57.150;-2.134;2023-02-01T16:19:23;6.50;99.90
23629;DHT22;11991;57.150;-2.134;2023-02-01T16:21:55;6.50;99.90
23629;DHT22;11991;57.150;-2.134;2023-02-01T16:24:22;6.40;99.90
23629;DHT22;11991;57.150;-2.134;2023-02-01T16:26:52;6.40;99.90
23629;DHT22;11991;57.150;-2.134;2023-02-01T16:29:20;6.40;99.90
23629;DHT22;11991;57.150;-2.134;2023-02-01T16:31:48;6.40;99.90
23629;DHT22;11991;57.150;-2.134;2023-02-01T16:34:17;6.30;99.90
23629;DHT22;11991;57.150;-2.134;2023-02-01T16:36:49;6.30;99.90
23629;DHT22;11991;57.150;-2.134;2023-02-01T16:39:19;6.20;99.90
23629;DHT22;11991;57.150;-2.134;2023-02-01T16:41:47;6.20;99.90
23629;DHT22;11991;57.150;-2.134;2023-02-01T16:44:14;6.10;99.90
23629;DHT22;11991;57.150;-2.134;2023-02-01T16:46:44;6.10;99.90
23629;DHT22;11991;57.150;-2.134;2023-02-01T16:49:31;6.10;99.90
23629;DHT22;11991;57.150;-2.134;2023-02-01T16:51:59;6.10;99.90
23629;DHT22;11991;57.150;-2.134;2023-02-01T16:54:26;6.00;99.90
23629;DHT22;11991;57.150;-2.134;2023-02-01T16:56:54;6.00;99.90
23629;DHT22;11991;57.150;-2.134;2023-02-01T16:59:21;6.00;99.90
23629;DHT22;11991;57.150;-2.134;2023-02-01T17:01:48;6.00;99.90
23629;DHT22;11991;57.150;-2.134;2023-02-01T17:04:15;5.90;99.90
23629;DHT22;11991;57.150;-2.134;2023-02-01T17:06:44;5.90;99.90
23629;DHT22;11991;57.150;-2.134;2023-02-01T17:09:14;5.90;99.90
23629;DHT22;11991;57.150;-2.134;2023-02-01T17:11:42;5.90;99.90
23629;DHT22;11991;57.150;-2.134;2023-02-01T17:14:18;5.90;99.90
23629;DHT22;11991;57.150;-2.134;2023-02-01T17:16:47;5.90;99.90
23629;DHT22;11991;57.150;-2.134;2023-02-01T17:19:18;5.90;99.90
23629;DHT22;11991;57.150;-2.134;2023-02-01T17:21:48;5.80;99.90
23629;DHT22;11991;57.150;-2.134;2023-02-01T17:24:22;5.80;99.90
23629;DHT22;11991;57.150;-2.134;2023-02-01T17:26:53;5.80;99.90
23629;DHT22;11991;57.150;-2.134;2023-02-01T17:29:20;5.70;99.90
23629;DHT22;11991;57.150;-2.134;2023-02-01T17:31:52;5.80;99.90
23629;DHT22;11991;57.150;-2.134;2023-02-01T17:34:21;5.70;99.90
23629;DHT22;11991;57.150;-2.134;2023-02-01T17:36:49;5.70;99.90
23629;DHT22;11991;57.150;-2.134;2023-02-01T17:39:17;5.70;99.90
23629;DHT22;11991;57.150;-2.134;2023-02-01T17:42:04;5.70;99.90
23629;DHT22;11991;57.150;-2.134;2023-02-01T17:44:31;5.70;99.90
23629;DHT22;11991;57.150;-2.134;2023-02-01T17:46:59;5.70;99.90
23629;DHT22;11991;57.150;-2.134;2023-02-01T17:49:26;5.70;99.90
23629;DHT22;11991;57.150;-2.134;2023-02-01T17:51:56;5.70;99.90
23629;DHT22;11991;57.150;-2.134;2023-02-01T17:54:24;5.70;99.90
23629;DHT22;11991;57.150;-2.134;2023-02-01T17:56:52;5.60;99.90
23629;DHT22;11991;57.150;-2.134;2023-02-01T17:59:22;5.60;99.90
23629;DHT22;11991;57.150;-2.134;2023-02-01T18:01:49;5.60;99.90
23629;DHT22;11991;57.150;-2.134;2023-02-01T18:04:18;5.70;99.90
23629;DHT22;11991;57.150;-2.134;2023-02-01T18:06:45;5.70;99.90
23629;DHT22;11991;57.150;-2.134;2023-02-01T18:09:13;5.70;99.90
23629;DHT22;11991;57.150;-2.134;2023-02-01T18:11:40;5.70;99.90
23629;DHT22;11991;57.150;-2.134;2023-02-01T18:14:11;5.70;99.90
23629;DHT22;11991;57.150;-2.134;2023-02-01T18:16:39;5.70;99.90
23629;DHT22;11991;57.150;-2.134;2023-02-01T18:19:07;5.70;99.90
23629;DHT22;11991;57.150;-2.134;2023-02-01T18:21:41;5.70;99.90
23629;DHT22;11991;57.150;-2.134;2023-02-01T18:24:13;5.70;99.90
23629;DHT22;11991;57.150;-2.134;2023-02-01T18:26:41;5.70;99.90
23629;DHT22;11991;57.150;-2.134;2023-02-01T18:29:09;5.70;99.90
23629;DHT22;11991;57.150;-2.134;2023-02-01T18:31:43;5.70;99.90
23629;DHT22;11991;57.150;-2.134;2023-02-01T18:34:11;5.70;99.90
23629;DHT22;11991;57.150;-2.134;2023-02-01T18:36:43;5.70;99.90
23629;DHT22;11991;57.150;-2.134;2023-02-01T18:39:10;5.70;99.90
23629;DHT22;11991;57.150;-2.134;2023-02-01T18:41:38;5.70;99.90
23629;DHT22;11991;57.150;-2.134;2023-02-01T18:44:12;5.70;99.90
23629;DHT22;11991;57.150;-2.134;2023-02-01T18:46:41;5.70;99.90
23629;DHT22;11991;57.150;-2.134;2023-02-01T18:49:09;5.70;99.90
23629;DHT22;11991;57.150;-2.134;2023-02-01T18:51:42;5.60;99.90
23629;DHT22;11991;57.150;-2.134;2023-02-01T18:54:10;5.60;99.90
23629;DHT22;11991;57.150;-2.134;2023-02-01T18:56:38;5.60;99.90
23629;DHT22;11991;57.150;-2.134;2023-02-01T18:59:05;5.60;99.90
23629;DHT22;11991;57.150;-2.134;2023-02-01T19:01:33;5.60;99.90